createdAt,value
2023-02-27T00:01:50.330Z,3.83
2023-02-27T00:06:54.196Z,3.65
2023-02-27T00:11:57.782Z,1.65
2023-02-27T00:17:00.911Z,0.60
2023-02-27T00:22:03.879Z,0.08
2023-02-27T00:27:06.861Z,0.30
2023-02-27T00:32:10.217Z,0.10
2023-02-27T00:37:14.255Z,0.50
2023-02-27T00:42:17.620Z,0.45
2023-02-27T00:47:22.972Z,0.77
2023-02-27T00:52:27.162Z,1.35
2023-02-27T00:57:31.101Z,3.58
2023-02-27T01:02:35.292Z,7.93
2023-02-27T01:07:38.903Z,7.75
2023-02-27T01:12:42.987Z,10.43
2023-02-27T01:17:48.233Z,5.22
2023-02-27T01:22:51.939Z,9.02
2023-02-27T01:27:54.927Z,5.88
2023-02-27T01:32:58.706Z,11.90
2023-02-27T01:38:02.170Z,10.02
2023-02-27T01:43:06.484Z,4.47
2023-02-27T01:48:10.092Z,8.13
2023-02-27T01:53:15.210Z,4.78
2023-02-27T01:58:18.972Z,2.80
2023-02-27T02:03:34.493Z,6.90
2023-02-27T02:08:42.987Z,2.15
2023-02-27T02:13:50.097Z,15.45
2023-02-27T02:19:15.120Z,14.25
2023-02-27T02:24:30.895Z,18.38
2023-02-27T02:29:45.782Z,10.90
2023-02-27T02:35:12.291Z,16.98
2023-02-27T02:40:41.985Z,18.35
2023-02-27T02:46:19.430Z,12.85
2023-02-27T02:51:44.834Z,12.25
2023-02-27T02:56:52.824Z,7.55
2023-02-27T03:02:10.649Z,11.43
2023-02-27T03:07:43.007Z,15.40
2023-02-27T03:12:52.217Z,21.95
2023-02-27T03:18:10.310Z,16.92
2023-02-27T03:23:28.961Z,14.13
2023-02-27T03:28:36.848Z,22.08
2023-02-27T03:33:52.570Z,9.15
2023-02-27T03:39:05.840Z,13.63
2023-02-27T03:44:24.762Z,22.73
2023-02-27T03:49:30.079Z,20.88
2023-02-27T03:54:38.067Z,9.10
2023-02-27T03:59:41.389Z,17.58
2023-02-27T04:04:45.013Z,14.25
2023-02-27T04:10:16.819Z,22.13
2023-02-27T04:15:33.457Z,24.55
2023-02-27T04:20:56.496Z,16.77
2023-02-27T04:26:09.327Z,13.13
2023-02-27T04:31:44.193Z,29.58
2023-02-27T04:36:57.415Z,9.05
2023-02-27T04:42:12.549Z,33.90
2023-02-27T04:47:18.091Z,20.85
2023-02-27T04:52:32.302Z,24.13
2023-02-27T04:57:41.502Z,20.45
2023-02-27T05:02:49.860Z,31.77
2023-02-27T05:07:58.799Z,22.10
2023-02-27T05:13:20.271Z,19.80
2023-02-27T05:18:25.114Z,34.28
2023-02-27T05:23:58.846Z,25.35
2023-02-27T05:29:06.715Z,21.65
2023-02-27T05:34:32.153Z,32.47
2023-02-27T05:39:38.845Z,24.92
2023-02-27T05:44:52.100Z,19.00
2023-02-27T05:50:18.070Z,18.60
2023-02-27T05:55:28.702Z,29.35
2023-02-27T06:00:47.198Z,31.15
2023-02-27T06:05:55.578Z,24.05
2023-02-27T06:10:59.139Z,23.60
2023-02-27T06:16:02.309Z,26.35
2023-02-27T06:21:05.733Z,21.38
2023-02-27T06:26:08.736Z,26.58
2023-02-27T06:31:11.856Z,23.52
2023-02-27T06:36:15.599Z,23.45
2023-02-27T06:41:19.421Z,24.33
2023-02-27T06:46:23.605Z,21.13
2023-02-27T06:51:27.169Z,34.55
2023-02-27T06:56:30.637Z,24.25
2023-02-27T07:01:34.182Z,18.48
2023-02-27T07:07:36.212Z,19.58
2023-02-27T07:12:00.797Z,21.95
2023-02-27T07:17:05.012Z,11.43
2023-02-27T07:22:10.050Z,25.25
2023-02-27T07:27:13.444Z,13.90
2023-02-27T07:32:17.143Z,21.67
2023-02-27T07:37:20.128Z,16.35
2023-02-27T07:42:24.143Z,14.85
2023-02-27T07:47:27.524Z,11.60
2023-02-27T07:52:31.585Z,12.13
2023-02-27T07:57:34.655Z,11.43
2023-02-27T08:02:38.622Z,16.05
2023-02-27T08:07:42.096Z,9.80
2023-02-27T08:12:45.126Z,19.70
2023-02-27T08:17:48.863Z,12.07
2023-02-27T08:22:52.171Z,10.38
2023-02-27T08:27:55.320Z,15.40
2023-02-27T08:32:58.537Z,21.15
2023-02-27T08:38:01.709Z,28.15
2023-02-27T08:43:04.718Z,19.75
2023-02-27T08:48:08.745Z,15.65
2023-02-27T08:53:12.809Z,12.82
2023-02-27T08:58:17.858Z,31.15
2023-02-27T09:03:21.798Z,17.63
2023-02-27T09:08:25.272Z,25.77
2023-02-27T09:13:28.837Z,15.55
2023-02-27T09:18:31.773Z,20.17
2023-02-27T09:23:35.509Z,17.88
2023-02-27T09:28:40.348Z,11.95
2023-02-27T09:33:44.687Z,28.92
2023-02-27T09:38:48.045Z,25.15
2023-02-27T09:43:52.593Z,25.08
2023-02-27T09:49:00.283Z,14.25
2023-02-27T09:54:05.797Z,19.67
2023-02-27T09:59:33.828Z,21.60
2023-02-27T10:05:15.555Z,22.60
2023-02-27T10:10:51.998Z,20.25
2023-02-27T10:15:55.715Z,20.25
2023-02-27T10:21:02.961Z,17.70
2023-02-27T10:26:07.165Z,22.48
2023-02-27T10:31:20.881Z,15.95
2023-02-27T10:36:33.775Z,20.00
2023-02-27T10:41:39.940Z,19.50
2023-02-27T10:46:44.453Z,19.40
2023-02-27T10:52:04.744Z,20.50
2023-02-27T10:57:36.321Z,21.35
2023-02-27T11:02:42.726Z,25.58
2023-02-27T11:07:46.525Z,17.80
2023-02-27T11:13:07.058Z,21.92
2023-02-27T11:18:21.948Z,22.52
2023-02-27T11:23:26.095Z,18.05
2023-02-27T11:28:30.771Z,19.67
2023-02-27T11:33:40.767Z,14.20
2023-02-27T11:38:53.537Z,20.23
2023-02-27T11:43:59.632Z,19.20
2023-02-27T11:49:28.969Z,17.77
2023-02-27T11:54:43.321Z,15.57
2023-02-27T12:00:06.999Z,18.25
2023-02-27T12:05:30.975Z,20.02
2023-02-27T12:10:48.848Z,14.55
2023-02-27T12:16:04.698Z,31.33
2023-02-27T12:21:33.872Z,20.30
2023-02-27T12:26:41.947Z,29.98
2023-02-27T12:31:53.622Z,25.70
2023-02-27T12:37:15.768Z,18.35
2023-02-27T12:42:37.496Z,25.20
2023-02-27T12:48:11.609Z,23.67
2023-02-27T12:53:36.077Z,14.35
2023-02-27T12:58:51.049Z,18.42
2023-02-27T13:04:22.602Z,21.08
2023-02-27T13:09:44.672Z,21.50
2023-02-27T13:14:56.267Z,14.40
2023-02-27T13:20:45.021Z,24.98
2023-02-27T13:25:52.286Z,27.52
2023-02-27T13:31:10.968Z,36.35
2023-02-27T13:36:56.810Z,24.90
2023-02-27T13:42:00.816Z,15.02
2023-02-27T13:47:48.143Z,24.35
2023-02-27T13:52:52.263Z,10.02
2023-02-27T13:57:59.023Z,8.38
2023-02-27T14:03:05.893Z,8.10
2023-02-27T14:08:30.931Z,8.57
2023-02-27T14:13:45.932Z,9.23
2023-02-27T14:18:55.250Z,8.30
2023-02-27T14:23:58.863Z,6.50
2023-02-27T14:29:02.665Z,6.25
2023-02-27T14:34:06.877Z,7.20
2023-02-27T14:39:32.701Z,9.38
2023-02-27T14:44:44.565Z,11.38
2023-02-27T14:49:48.541Z,6.68
2023-02-27T14:54:52.683Z,11.45
2023-02-27T14:59:56.192Z,4.93
2023-02-27T15:05:02.317Z,13.27
2023-02-27T15:10:08.529Z,7.35
2023-02-27T15:15:19.365Z,3.90
2023-02-27T15:20:30.295Z,6.82
2023-02-27T15:25:33.237Z,8.38
2023-02-27T15:30:36.671Z,5.07
2023-02-27T15:35:44.532Z,4.47
2023-02-27T15:40:47.699Z,7.68
2023-02-27T15:45:53.007Z,6.22
2023-02-27T15:50:59.904Z,3.72
2023-02-27T15:56:09.765Z,3.97
2023-02-27T16:01:23.014Z,2.40
2023-02-27T16:06:33.825Z,2.67
2023-02-27T16:11:38.604Z,3.28
2023-02-27T16:16:41.791Z,7.38
2023-02-27T16:22:13.505Z,6.25
2023-02-27T16:27:28.703Z,3.95
2023-02-27T16:32:39.231Z,4.32
2023-02-27T16:37:46.427Z,2.70
2023-02-27T16:42:50.912Z,5.65
2023-02-27T16:47:56.751Z,3.58
2023-02-27T16:53:00.263Z,2.58
2023-02-27T16:58:03.735Z,2.53
2023-02-27T17:03:07.652Z,1.30
2023-02-27T17:08:11.842Z,2.25
2023-02-27T17:13:15.962Z,9.38
2023-02-27T17:18:19.892Z,8.00
2023-02-27T17:23:23.796Z,2.47
2023-02-27T17:28:27.358Z,1.48
2023-02-27T17:33:32.291Z,14.35
2023-02-27T17:38:35.528Z,2.00
2023-02-27T17:43:39.137Z,3.20
2023-02-27T17:48:43.069Z,3.70
2023-02-27T17:53:47.251Z,4.38
2023-02-27T17:58:50.774Z,3.05
2023-02-27T18:03:55.650Z,4.32
2023-02-27T18:08:59.314Z,2.00
2023-02-27T18:14:03.280Z,5.35
2023-02-27T18:19:07.736Z,1.98
2023-02-27T18:24:10.825Z,1.55
2023-02-27T18:29:14.716Z,2.97
2023-02-27T18:34:18.225Z,1.30
2023-02-27T18:39:23.128Z,2.70
2023-02-27T18:44:26.700Z,1.67
2023-02-27T18:49:30.410Z,2.25
2023-02-27T18:54:33.410Z,2.00
2023-02-27T18:59:38.038Z,1.27
2023-02-27T19:04:42.235Z,1.50
2023-02-27T19:09:45.656Z,1.75
2023-02-27T19:14:50.057Z,1.48
2023-02-27T19:19:53.994Z,1.70
2023-02-27T19:24:57.599Z,0.77
2023-02-27T19:30:01.794Z,5.45
2023-02-27T19:35:05.665Z,2.85
2023-02-27T19:40:11.323Z,3.55
2023-02-27T19:45:14.319Z,0.98
2023-02-27T19:50:17.723Z,2.25
2023-02-27T19:55:20.789Z,1.70
2023-02-27T20:00:25.006Z,2.08
2023-02-27T20:05:28.476Z,0.55
2023-02-27T20:10:31.501Z,2.67
2023-02-27T20:15:34.908Z,5.50
2023-02-27T20:20:40.292Z,11.30
2023-02-27T20:25:44.319Z,1.60
2023-02-27T20:30:47.271Z,8.43
2023-02-27T20:35:51.158Z,2.13
2023-02-27T20:40:58.852Z,4.97
2023-02-27T20:46:06.881Z,6.25
2023-02-27T20:51:17.642Z,10.52
2023-02-27T20:56:23.969Z,8.68
2023-02-27T21:01:28.183Z,15.10
2023-02-27T21:06:32.322Z,8.45
2023-02-27T21:11:35.880Z,11.40
2023-02-27T21:16:40.961Z,29.75
2023-02-27T21:21:44.801Z,12.70
2023-02-27T21:26:48.070Z,30.05
2023-02-27T21:31:52.382Z,13.95
2023-02-27T21:36:56.167Z,20.02
2023-02-27T21:41:59.845Z,26.02
2023-02-27T21:47:10.415Z,20.05
2023-02-27T21:52:13.805Z,35.90
2023-02-27T21:57:17.130Z,36.13
2023-02-27T22:02:20.619Z,24.42
2023-02-27T22:07:23.561Z,17.90
2023-02-27T22:12:27.254Z,29.27
2023-02-27T22:17:30.268Z,29.55
2023-02-27T22:22:34.245Z,22.70
2023-02-27T22:27:37.636Z,15.63
2023-02-27T22:32:41.198Z,20.67
2023-02-27T22:37:45.104Z,13.05
2023-02-27T22:42:50.601Z,27.05
2023-02-27T22:47:54.262Z,22.27
2023-02-27T22:52:57.246Z,15.02
2023-02-27T22:58:00.816Z,22.58
2023-02-27T23:03:04.501Z,12.68
2023-02-27T23:08:08.006Z,19.85
2023-02-27T23:13:11.520Z,22.08
2023-02-27T23:18:14.508Z,13.52
2023-02-27T23:23:18.511Z,21.00
2023-02-27T23:28:21.602Z,15.90
2023-02-27T23:33:25.557Z,12.52
2023-02-27T23:38:29.852Z,16.92
2023-02-27T23:43:34.126Z,26.52
2023-02-27T23:48:37.884Z,18.17
2023-02-27T23:53:43.172Z,15.27
2023-02-27T23:58:47.108Z,10.02
